Latest Weather Observations for Whyalla

IDS60801

Issued at 10:02 am CDT Monday 22 December 2014 (issued every 30 minutes, with the page automatically refreshed every 10 minutes)

About weather observations | Map of weather stations | Latest weather observations for SA | Other Formats
Station Details ID: 018120 Name: WHYALLA AERO Lat: -33.05 Lon: 137.52 Height: 6.5 m
Data from the previous 72 hours. | See also: Recent months at Whyalla
Date/Time
CDT
Temp
°C
App
Temp
°C
Dew
Point
Rel
Hum
%
Delta-T
°C
Wind Press
QNH
hPa
Press
MSL
hPa
Rain
since 9 am
mm
Dir
 
Spd
km/h
Gust
km/h
Spd
kts
Gust
kts
22/10:00am 22.0 23.2 17.4 75 2.8 W 7 9 4 5 1009.9 1009.8 0.0
22/09:30am 21.9 22.0 16.6 72 3.2 W 11 13 6 7 1008.9 1008.8 0.0
22/09:00am 21.6 22.6 16.3 72 3.2 SSW 6 11 3 6 1008.2 1008.1 0.0
22/08:30am 21.3 21.5 16.7 75 2.8 SSW 11 13 6 7 1006.9 1006.8 0.0
22/08:00am 21.4 22.0 16.8 75 2.8 SW 9 15 5 8 1006.5 1006.4 0.0
22/07:30am 21.2 21.0 16.6 75 2.8 SSW 13 19 7 10 1006.1 1006.0 0.0
22/07:00am 21.0 19.8 16.2 74 2.9 SSW 17 22 9 12 1006.1 1006.0 0.0
22/06:30am 20.9 19.2 16.3 75 2.8 WSW 20 37 11 20 1006.7 1006.6 0.0
22/06:00am 20.8 19.8 16.6 77 2.6 SSW 17 22 9 12 1005.2 1005.1 0.0
22/05:30am 20.8 20.5 16.4 76 2.7 SW 13 17 7 9 1005.0 1004.9 0.0
22/05:00am 20.8 21.0 16.8 78 2.4 SW 11 17 6 9 1004.9 1004.8 0.0
22/04:30am 20.7 21.9 16.9 79 2.3 SW 6 11 3 6 1005.1 1005.0 0.0
22/04:00am 21.1 21.8 17.1 78 2.4 SW 9 13 5 7 1005.1 1005.0 0.0
22/03:30am 21.4 22.0 17.6 79 2.4 SW 11 15 6 8 1005.5 1005.4 0.0
22/03:00am 21.7 22.3 18.7 83 1.9 SW 13 17 7 9 1005.9 1005.8 0.0
22/02:30am 21.8 23.1 18.4 81 2.1 SW 9 11 5 6 1006.0 1005.9 0.0
22/02:00am 22.5 24.1 18.3 77 2.6 SSW 7 9 4 5 1006.5 1006.4 0.0
22/01:30am 23.0 24.8 18.7 77 2.7 S 7 11 4 6 1007.1 1007.0 0.0
22/01:00am 23.1 25.0 18.6 76 2.8 ESE 6 11 3 6 1007.9 1007.8 0.0
22/12:30am 23.1 24.4 18.4 75 3.0 SSE 9 15 5 8 1008.1 1008.0 0.0
22/12:00am 23.3 23.7 18.2 73 3.2 SE 13 17 7 9 1008.5 1008.4 0.0
 
Date/Time
CDT
Temp
°C
App
Temp
°C
Dew
Point
Rel
Hum
%
Delta-T
°C
Wind Press
QNH
hPa
Press
MSL
hPa
Rain
since 9 am
mm
Dir
 
Spd
km/h
Gust
km/h
Spd
kts
Gust
kts
21/11:30pm 23.7 24.2 17.4 68 3.9 SSE 11 17 6 9 1009.4 1009.3 0.0
21/11:00pm 24.6 23.5 16.3 60 5.1 S 17 24 9 13 1009.3 1009.2 0.0
21/10:30pm 26.0 24.8 14.1 47 7.1 S 13 20 7 11 1009.6 1009.5 0.0
21/10:00pm 27.0 24.0 12.6 41 8.4 SW 20 28 11 15 1009.6 1009.5 0.0
21/09:30pm 27.4 25.5 14.1 44 7.9 SSW 17 20 9 11 1009.4 1009.3 0.0
21/09:00pm 28.7 25.1 13.0 38 9.3 SSW 24 35 13 19 1009.1 1009.0 0.0
21/08:30pm 29.7 25.6 12.6 35 10.1 SW 26 33 14 18 1008.8 1008.7 0.0
21/08:02pm 31.5 25.5 10.8 28 11.9 WSW 33 56 18 30 1008.3 1008.2 0.0
21/08:00pm 31.6 25.8 10.9 28 12.0 WSW 32 56 17 30 1008.1 1008.0 0.0
21/07:57pm 32.0 27.3 10.7 27 12.3 WNW 26 56 14 30 1007.8 1007.7 0.0
21/07:30pm 34.1 28.4 4.7 16 15.6 WNW 24 33 13 18 1007.5 1007.4 0.0
21/07:00pm 34.8 28.4 3.4 14 16.4 WNW 26 33 14 18 1007.1 1007.0 0.0
21/06:30pm 35.4 27.8 -2.3 9 18.0 WNW 28 37 15 20 1006.7 1006.6 0.0
21/06:00pm 36.1 30.1 -1.7 9 18.3 NW 20 32 11 17 1006.4 1006.3 0.0
21/05:30pm 36.6 31.2 -1.4 9 18.6 NW 17 24 9 13 1006.3 1006.2 0.0
21/05:00pm 36.6 30.8 -1.4 9 18.5 NW 19 32 10 17 1006.5 1006.4 0.0
21/04:30pm 36.7 31.7 -1.3 9 18.6 N 15 24 8 13 1006.6 1006.5 0.0
21/04:00pm 36.8 30.5 -1.2 9 18.6 N 22 30 12 16 1006.8 1006.7 0.0
21/03:30pm 37.3 31.4 -0.9 9 18.9 N 20 32 11 17 1007.3 1007.2 0.0
21/03:00pm 37.4 31.7 -0.8 9 18.9 N 19 30 10 16 1007.5 1007.4 0.0
21/02:30pm 38.1 32.5 -0.3 9 19.3 N 19 32 10 17 1007.8 1007.7 0.0
21/02:00pm 37.4 31.7 -0.8 9 18.9 NW 19 30 10 16 1008.6 1008.5 0.0
21/01:30pm 36.9 30.2 -1.1 9 18.7 NNW 24 44 13 24 1009.0 1008.9 0.0
21/01:00pm 37.3 31.2 0.6 10 18.6 NNW 22 33 12 18 1009.5 1009.4 0.0
21/12:30pm 36.8 29.5 0.2 10 18.4 N 28 37 15 20 1010.0 1009.9 0.0
21/12:00pm 35.9 28.4 0.9 11 17.7 N 30 39 16 21 1010.4 1010.3 0.0
21/11:30am 34.7 27.9 1.1 12 16.9 N 26 37 14 20 1010.5 1010.4 0.0
21/11:00am 34.8 27.3 1.2 12 16.9 N 30 39 16 21 1010.6 1010.5 0.0
21/10:30am 32.5 26.2 3.5 16 14.9 N 26 35 14 19 1010.8 1010.7 0.0
21/10:00am 31.8 26.4 4.6 18 14.2 N 22 32 12 17 1011.1 1011.0 0.0
21/09:30am 30.6 26.0 6.5 22 12.9 N 20 26 11 14 1011.3 1011.2 0.0
21/09:00am 29.2 24.8 6.6 24 12.0 N 19 24 10 13 1011.2 1011.1 0.0
21/08:30am 25.7 25.5 12.9 45 7.4 N 6 9 3 5 1011.2 1011.1 0.0
21/08:00am 23.2 24.0 12.5 51 6.1 CALM 0 0 0 0 1011.2 1011.1 0.0
21/07:30am 20.2 19.5 11.9 59 4.6 NNW 7 9 4 5 1010.8 1010.7 0.0
21/07:00am 17.2 16.3 11.2 68 3.2 NNW 7 11 4 6 1010.5 1010.4 0.0
21/06:30am 14.8 12.9 10.6 76 2.2 NNW 11 13 6 7 1010.1 1010.0 0.0
21/06:00am 14.3 12.3 10.1 76 2.2 NW 11 15 6 8 1010.0 1009.9 0.0
21/05:30am 14.7 13.3 10.9 78 2.0 NW 9 11 5 6 1009.7 1009.6 0.0
21/05:00am 15.2 14.4 11.6 79 1.9 WNW 7 9 4 5 1009.6 1009.5 0.0
21/04:30am 15.9 14.8 11.9 77 2.2 N 9 13 5 7 1009.7 1009.6 0.0
21/04:00am 16.3 15.4 12.7 79 2.0 NNW 9 9 5 5 1009.7 1009.6 0.0
21/03:30am 16.8 17.6 12.5 76 2.4 CALM 0 6 0 3 1009.7 1009.6 0.0
21/03:00am 17.2 17.0 13.1 77 2.3 W 6 7 3 4 1010.1 1010.0 0.0
21/02:30am 17.1 16.9 13.0 77 2.3 NNW 6 9 3 5 1010.3 1010.2 0.0
21/02:00am 17.9 17.4 13.8 77 2.3 SW 9 9 5 5 1010.9 1010.8 0.0
21/01:30am 18.3 17.7 13.6 74 2.7 WSW 9 9 5 5 1010.9 1010.8 0.0
21/01:00am 19.0 19.3 14.5 75 2.6 WSW 6 7 3 4 1011.0 1010.9 0.0
21/12:30am 19.4 18.9 14.9 75 2.6 SW 11 13 6 7 1011.2 1011.1 0.0
21/12:00am 20.0 19.8 14.6 71 3.2 SSW 9 11 5 6 1011.2 1011.1 0.0
 
Date/Time
CDT
Temp
°C
App
Temp
°C
Dew
Point
Rel
Hum
%
Delta-T
°C
Wind Press
QNH
hPa
Press
MSL
hPa
Rain
since 9 am
mm
Dir
 
Spd
km/h
Gust
km/h
Spd
kts
Gust
kts
20/11:30pm 20.6 20.4 14.7 69 3.5 S 9 11 5 6 1011.7 1011.6 0.0
20/11:00pm 21.3 20.7 14.5 65 4.0 SSW 11 15 6 8 1011.8 1011.7 0.0
20/10:30pm 22.1 21.2 15.9 68 3.7 SSW 15 17 8 9 1011.9 1011.8 0.0
20/10:00pm 22.3 21.1 16.1 68 3.7 SSW 17 24 9 13 1011.8 1011.7 0.0
20/09:30pm 22.5 21.2 15.8 66 4.0 SSW 17 20 9 11 1011.7 1011.6 0.0
20/09:00pm 22.6 21.1 16.4 68 3.8 S 19 24 10 13 1011.8 1011.7 0.0
20/08:30pm 23.0 21.6 17.0 69 3.7 S 20 28 11 15 1011.8 1011.7 0.0
20/08:00pm 24.1 22.0 16.1 61 4.9 S 22 28 12 15 1011.7 1011.6 0.0
20/07:30pm 25.1 23.2 15.7 56 5.7 S 20 26 11 14 1011.6 1011.5 0.0
20/07:00pm 27.7 24.4 9.5 32 10.1 SSE 17 20 9 11 1011.5 1011.4 0.0
20/06:30pm 28.2 24.5 8.0 28 11.0 SSE 17 22 9 12 1011.4 1011.3 0.0
20/06:00pm 28.4 24.0 7.6 27 11.2 SSE 20 26 11 14 1011.5 1011.4 0.0
20/05:30pm 28.6 24.7 9.3 30 10.7 SE 20 28 11 15 1011.7 1011.6 0.0
20/05:00pm 29.4 25.0 9.0 28 11.3 SE 22 28 12 15 1011.8 1011.7 0.0
20/04:30pm 27.9 23.8 11.5 36 9.4 SE 24 32 13 17 1012.3 1012.2 0.0
20/04:00pm 28.1 24.5 12.0 36 9.3 SE 22 30 12 16 1012.7 1012.6 0.0
20/03:30pm 29.5 25.9 10.6 31 10.8 SE 20 26 11 14 1013.2 1013.1 0.0
20/03:00pm 29.1 25.4 10.3 31 10.6 SE 20 28 11 15 1013.6 1013.5 0.0
20/02:30pm 28.1 24.6 10.8 34 9.8 SE 20 26 11 14 1014.2 1014.1 0.0
20/02:00pm 28.6 25.3 10.8 33 10.1 SE 19 24 10 13 1014.7 1014.6 0.0
20/01:30pm 27.7 24.7 12.1 38 9.0 SE 19 24 10 13 1015.2 1015.1 0.0
20/01:00pm 28.0 24.5 10.2 33 10.0 SSE 19 22 10 12 1015.6 1015.5 0.0
20/12:30pm 26.4 23.2 10.1 36 9.1 SE 17 22 9 12 1016.0 1015.9 0.0
20/12:00pm 25.8 22.6 10.0 37 8.7 SE 17 24 9 13 1016.3 1016.2 0.0
20/11:30am 25.3 22.6 10.4 39 8.3 SE 15 20 8 11 1016.8 1016.7 0.0
20/11:00am 24.3 21.7 9.5 39 8.1 SSE 13 19 7 10 1016.9 1016.8 0.0
20/10:30am 24.7 22.1 9.4 38 8.3 ESE 13 19 7 10 1017.3 1017.2 0.0
20/10:00am 23.5 22.1 9.5 41 7.6 S 7 15 4 8 1017.6 1017.5 0.0
20/09:30am 23.0 21.1 9.0 41 7.5 SSE 9 15 5 8 1017.9 1017.8 0.0
20/09:00am 21.9 21.1 11.0 50 6.0 ESE 6 13 3 7 1018.1 1018.0 0.0
20/08:30am 21.7 21.3 11.1 51 5.8 SE 4 11 2 6 1017.8 1017.7 0.0
20/08:00am 20.2 19.2 11.1 56 5.0 SSW 7 9 4 5 1017.7 1017.6 0.0
20/07:30am 18.5 17.4 12.0 66 3.6 W 9 11 5 6 1017.8 1017.7 0.0
20/07:00am 15.8 14.5 11.2 74 2.5 W 9 13 5 7 1017.6 1017.5 0.0
20/06:30am 14.3 13.2 10.7 79 1.9 SSW 7 9 4 5 1017.4 1017.3 0.0
20/06:00am 14.9 13.6 11.1 78 2.0 SSE 9 11 5 6 1017.0 1016.9 0.0
20/05:30am 15.7 14.8 11.5 76 2.3 S 7 9 4 5 1017.2 1017.1 0.0
20/05:00am 16.8 15.2 11.7 72 2.8 SSE 11 15 6 8 1017.0 1016.9 0.0
20/04:30am 17.1 15.2 11.8 71 2.9 SSE 13 17 7 9 1017.0 1016.9 0.0
20/04:00am 17.2 15.6 11.7 70 3.0 SSE 11 13 6 7 1017.0 1016.9 0.0
20/03:30am 17.5 15.7 12.0 70 3.0 SSE 13 19 7 10 1016.9 1016.8 0.0
20/03:00am 17.7 15.9 12.2 70 3.0 SSE 13 20 7 11 1017.2 1017.1 0.0
20/02:30am 17.9 15.6 11.7 67 3.4 SE 15 20 8 11 1017.2 1017.1 0.0
20/02:00am 18.0 15.7 11.8 67 3.4 SE 15 20 8 11 1017.7 1017.6 0.0
20/01:30am 18.4 15.4 11.9 66 3.6 SE 19 28 10 15 1018.0 1017.9 0.0
20/01:00am 18.9 16.1 13.1 69 3.3 SSE 20 28 11 15 1018.5 1018.4 0.0
20/12:30am 19.0 16.3 13.0 68 3.4 SSE 19 28 10 15 1018.7 1018.6 0.0
20/12:00am 19.3 16.2 12.1 63 4.0 SSE 20 28 11 15 1018.9 1018.8 0.0
 
Date/Time
CDT
Temp
°C
App
Temp
°C
Dew
Point
Rel
Hum
%
Delta-T
°C
Wind Press
QNH
hPa
Press
MSL
hPa
Rain
since 9 am
mm
Dir
 
Spd
km/h
Gust
km/h
Spd
kts
Gust
kts
19/11:30pm 19.7 15.8 10.9 57 4.8 SSE 22 30 12 16 1019.0 1018.9 0.0
19/11:00pm 20.0 16.4 10.7 55 5.1 SSE 20 32 11 17 1019.2 1019.1 0.0
19/10:30pm 19.9 16.5 13.6 67 3.6 S 24 32 13 17 1019.4 1019.3 0.0
19/10:00pm 20.0 16.2 13.5 66 3.7 S 26 35 14 19 1019.1 1019.0 0.0
19/09:30pm 20.2 15.6 12.4 61 4.4 S 28 35 15 19 1019.0 1018.9 0.0
19/09:00pm 20.1 15.4 12.1 60 4.5 S 28 39 15 21 1018.7 1018.6 0.0
19/08:30pm 20.1 14.7 12.1 60 4.5 S 32 43 17 23 1018.7 1018.6 0.0
19/08:00pm 20.6 14.9 11.2 55 5.2 S 32 44 17 24 1018.7 1018.6 0.0
19/07:30pm 20.9 15.5 12.1 57 4.9 S 32 43 17 23 1018.5 1018.4 0.0
19/07:00pm 21.2 15.5 11.8 55 5.2 S 33 44 18 24 1018.1 1018.0 0.0
19/06:30pm 21.9 16.1 11.6 52 5.7 S 33 46 18 25 1018.0 1017.9 0.0
19/06:00pm 22.4 16.7 11.8 51 5.9 S 33 43 18 23 1017.8 1017.7 0.0
19/05:30pm 22.9 17.2 11.3 48 6.5 S 32 43 17 23 1017.8 1017.7 0.0
19/05:00pm 23.0 17.2 10.8 46 6.8 S 32 39 17 21 1017.9 1017.8 0.0
19/04:30pm 22.5 17.0 10.6 47 6.5 S 30 37 16 20 1018.3 1018.2 0.0
19/04:00pm 22.8 17.4 9.6 43 7.1 S 28 35 15 19 1018.6 1018.5 0.0
19/03:30pm 22.6 17.2 9.4 43 7.1 S 28 39 15 21 1018.8 1018.7 0.0
19/03:00pm 22.7 18.0 9.1 42 7.3 S 24 33 13 18 1019.1 1019.0 0.0
19/02:30pm 22.3 17.8 8.4 41 7.3 SSE 22 32 12 17 1019.4 1019.3 0.0
19/02:00pm 22.1 17.5 6.7 37 7.9 SSE 20 30 11 16 1019.5 1019.4 0.0
19/01:30pm 21.5 16.7 7.3 40 7.3 SSE 22 32 12 17 1019.8 1019.7 0.0
19/01:00pm 20.9 15.4 5.7 37 7.6 S 24 32 13 17 1020.0 1019.9 0.0
19/12:30pm 20.4 16.3 8.7 47 6.1 SSE 20 32 11 17 1020.4 1020.3 0.0
19/12:00pm 19.8 15.7 8.8 49 5.7 SSE 20 32 11 17 1020.4 1020.3 0.0
19/11:30am 19.4 15.5 8.7 50 5.6 SSE 19 30 10 16 1020.4 1020.3 0.0
19/11:00am 18.8 14.9 7.3 47 5.8 SE 17 24 9 13 1020.5 1020.4 0.0
19/10:30am 19.3 15.8 8.6 50 5.5 SE 17 24 9 13 1020.6 1020.5 0.0

Other Formats:

Comma delimited format used in spreadsheet applications
http://www.bom.gov.au/fwo/IDS60801/IDS60801.95664.axf

JavaScript Object Notation format (JSON) in row-major order
http://www.bom.gov.au/fwo/IDS60801/IDS60801.95664.json